sensor_id;sensor_type;location;lat;lon;timestamp;temperature;humidity
78297;DHT22;67555;47.660;19.622;2024-03-23T00:53:12;6.30;71.00
78297;DHT22;67555;47.660;19.622;2024-03-23T00:55:38;6.30;71.20
78297;DHT22;67555;47.660;19.622;2024-03-23T00:58:04;6.30;71.20
78297;DHT22;67555;47.660;19.622;2024-03-23T01:00:29;6.30;71.10
78297;DHT22;67555;47.660;19.622;2024-03-23T01:02:55;6.40;71.10
78297;DHT22;67555;47.660;19.622;2024-03-23T01:05:21;6.40;71.10
78297;DHT22;67555;47.660;19.622;2024-03-23T01:07:46;6.30;71.10
78297;DHT22;67555;47.660;19.622;2024-03-23T01:10:12;6.30;71.20
78297;DHT22;67555;47.660;19.622;2024-03-23T01:12:38;6.30;71.30
78297;DHT22;67555;47.660;19.622;2024-03-23T01:15:04;6.40;71.10
78297;DHT22;67555;47.660;19.622;2024-03-23T01:17:29;6.50;70.90
78297;DHT22;67555;47.660;19.622;2024-03-23T01:19:55;6.60;70.70
78297;DHT22;67555;47.660;19.622;2024-03-23T01:22:21;6.70;70.50
78297;DHT22;67555;47.660;19.622;2024-03-23T01:24:46;6.80;70.30
78297;DHT22;67555;47.660;19.622;2024-03-23T01:27:12;6.80;70.10
78297;DHT22;67555;47.660;19.622;2024-03-23T01:29:38;6.80;70.00
78297;DHT22;67555;47.660;19.622;2024-03-23T01:32:04;6.90;70.00
78297;DHT22;67555;47.660;19.622;2024-03-23T01:34:30;6.80;70.00
78297;DHT22;67555;47.660;19.622;2024-03-23T01:36:56;6.70;70.30
78297;DHT22;67555;47.660;19.622;2024-03-23T01:39:21;6.60;70.70
78297;DHT22;67555;47.660;19.622;2024-03-23T01:41:47;6.50;71.00
78297;DHT22;67555;47.660;19.622;2024-03-23T01:44:13;6.50;71.20
78297;DHT22;67555;47.660;19.622;2024-03-23T01:46:39;6.50;71.40
78297;DHT22;67555;47.660;19.622;2024-03-23T01:49:06;6.60;71.20
78297;DHT22;67555;47.660;19.622;2024-03-23T01:51:33;6.60;71.20
78297;DHT22;67555;47.660;19.622;2024-03-23T01:54:00;6.60;71.20
78297;DHT22;67555;47.660;19.622;2024-03-23T01:56:37;6.50;71.20
78297;DHT22;67555;47.660;19.622;2024-03-23T01:59:04;6.50;71.10
78297;DHT22;67555;47.660;19.622;2024-03-23T02:01:29;6.50;70.80
78297;DHT22;67555;47.660;19.622;2024-03-23T02:03:56;6.40;70.70
78297;DHT22;67555;47.660;19.622;2024-03-23T02:06:22;6.30;70.80
78297;DHT22;67555;47.660;19.622;2024-03-23T02:08:48;6.20;71.00
78297;DHT22;67555;47.660;19.622;2024-03-23T02:11:14;6.10;71.00
78297;DHT22;67555;47.660;19.622;2024-03-23T02:13:39;6.00;71.10
78297;DHT22;67555;47.660;19.622;2024-03-23T02:16:06;5.90;71.50
78297;DHT22;67555;47.660;19.622;2024-03-23T02:18:32;5.60;71.90
78297;DHT22;67555;47.660;19.622;2024-03-23T02:20:58;5.50;72.10
78297;DHT22;67555;47.660;19.622;2024-03-23T02:23:24;5.50;72.20
78297;DHT22;67555;47.660;19.622;2024-03-23T02:25:50;5.50;72.10
78297;DHT22;67555;47.660;19.622;2024-03-23T02:28:16;5.50;72.20
78297;DHT22;67555;47.660;19.622;2024-03-23T02:30:43;5.50;72.20
78297;DHT22;67555;47.660;19.622;2024-03-23T02:33:09;5.50;72.10
78297;DHT22;67555;47.660;19.622;2024-03-23T02:35:35;5.60;71.90
78297;DHT22;67555;47.660;19.622;2024-03-23T02:38:00;5.60;71.80
78297;DHT22;67555;47.660;19.622;2024-03-23T02:40:28;5.60;71.60
78297;DHT22;67555;47.660;19.622;2024-03-23T02:42:54;5.60;71.60
78297;DHT22;67555;47.660;19.622;2024-03-23T02:45:20;5.70;71.50
78297;DHT22;67555;47.660;19.622;2024-03-23T02:47:46;5.70;71.40
78297;DHT22;67555;47.660;19.622;2024-03-23T02:50:11;5.70;71.30
78297;DHT22;67555;47.660;19.622;2024-03-23T02:52:37;5.70;71.40
78297;DHT22;67555;47.660;19.622;2024-03-23T02:55:03;5.60;71.50
78297;DHT22;67555;47.660;19.622;2024-03-23T02:57:29;5.60;71.70
78297;DHT22;67555;47.660;19.622;2024-03-23T02:59:55;5.70;71.50
78297;DHT22;67555;47.660;19.622;2024-03-23T03:02:21;5.80;71.30
78297;DHT22;67555;47.660;19.622;2024-03-23T03:04:47;5.90;71.20
78297;DHT22;67555;47.660;19.622;2024-03-23T03:07:13;5.90;71.10
78297;DHT22;67555;47.660;19.622;2024-03-23T03:09:39;5.90;71.00
78297;DHT22;67555;47.660;19.622;2024-03-23T03:12:08;5.80;71.10
78297;DHT22;67555;47.660;19.622;2024-03-23T03:14:34;5.80;71.40
78297;DHT22;67555;47.660;19.622;2024-03-23T03:17:00;5.70;71.70
78297;DHT22;67555;47.660;19.622;2024-03-23T03:19:26;5.60;72.00
78297;DHT22;67555;47.660;19.622;2024-03-23T03:21:52;5.60;72.10
78297;DHT22;67555;47.660;19.622;2024-03-23T03:24:18;5.60;71.80
78297;DHT22;67555;47.660;19.622;2024-03-23T03:26:44;5.60;71.70
78297;DHT22;67555;47.660;19.622;2024-03-23T03:29:10;5.60;71.60
78297;DHT22;67555;47.660;19.622;2024-03-23T03:31:37;5.60;71.60
78297;DHT22;67555;47.660;19.622;2024-03-23T03:34:03;5.50;71.70
78297;DHT22;67555;47.660;19.622;2024-03-23T03:36:29;5.50;71.60
78297;DHT22;67555;47.660;19.622;2024-03-23T03:38:54;5.50;71.60
78297;DHT22;67555;47.660;19.622;2024-03-23T03:41:20;5.50;71.60
78297;DHT22;67555;47.660;19.622;2024-03-23T03:43:46;5.40;71.70
78297;DHT22;67555;47.660;19.622;2024-03-23T03:46:13;5.30;71.90
78297;DHT22;67555;47.660;19.622;2024-03-23T03:48:38;5.30;72.10
78297;DHT22;67555;47.660;19.622;2024-03-23T03:51:04;5.30;72.10
78297;DHT22;67555;47.660;19.622;2024-03-23T03:53:30;5.30;72.10
78297;DHT22;67555;47.660;19.622;2024-03-23T03:55:56;5.30;72.30
78297;DHT22;67555;47.660;19.622;2024-03-23T03:58:25;5.30;72.40
78297;DHT22;67555;47.660;19.622;2024-03-23T04:00:51;5.40;72.30
78297;DHT22;67555;47.660;19.622;2024-03-23T04:03:17;5.30;72.30
78297;DHT22;67555;47.660;19.622;2024-03-23T04:05:52;5.50;72.30
78297;DHT22;67555;47.660;19.622;2024-03-23T04:08:19;5.50;72.40
78297;DHT22;67555;47.660;19.622;2024-03-23T04:10:44;5.50;72.30
78297;DHT22;67555;47.660;19.622;2024-03-23T04:13:11;5.60;72.10
78297;DHT22;67555;47.660;19.622;2024-03-23T04:15:37;5.80;71.70
78297;DHT22;67555;47.660;19.622;2024-03-23T04:18:02;5.70;71.70
78297;DHT22;67555;47.660;19.622;2024-03-23T04:20:28;5.60;71.80
78297;DHT22;67555;47.660;19.622;2024-03-23T04:22:54;5.60;72.10
78297;DHT22;67555;47.660;19.622;2024-03-23T04:25:20;5.60;72.20
78297;DHT22;67555;47.660;19.622;2024-03-23T04:27:45;5.50;72.30
78297;DHT22;67555;47.660;19.622;2024-03-23T04:30:11;5.50;72.40
78297;DHT22;67555;47.660;19.622;2024-03-23T04:32:37;5.60;72.20
78297;DHT22;67555;47.660;19.622;2024-03-23T04:35:04;5.60;72.10
78297;DHT22;67555;47.660;19.622;2024-03-23T04:37:35;5.70;72.00
78297;DHT22;67555;47.660;19.622;2024-03-23T04:40:01;5.80;71.70
78297;DHT22;67555;47.660;19.622;2024-03-23T04:42:28;5.90;71.50
78297;DHT22;67555;47.660;19.622;2024-03-23T04:44:54;5.80;71.60
78297;DHT22;67555;47.660;19.622;2024-03-23T04:47:19;5.80;71.80
78297;DHT22;67555;47.660;19.622;2024-03-23T04:49:45;5.80;72.00
78297;DHT22;67555;47.660;19.622;2024-03-23T04:52:11;5.80;72.00
78297;DHT22;67555;47.660;19.622;2024-03-23T04:54:37;5.90;71.80
78297;DHT22;67555;47.660;19.622;2024-03-23T04:57:03;6.00;71.70
78297;DHT22;67555;47.660;19.622;2024-03-23T04:59:29;6.20;71.40
78297;DHT22;67555;47.660;19.622;2024-03-23T05:01:54;6.30;71.20
78297;DHT22;67555;47.660;19.622;2024-03-23T05:04:20;6.40;71.00
78297;DHT22;67555;47.660;19.622;2024-03-23T05:06:46;6.50;70.90
78297;DHT22;67555;47.660;19.622;2024-03-23T05:09:11;6.60;70.80
78297;DHT22;67555;47.660;19.622;2024-03-23T05:11:38;6.70;70.70
78297;DHT22;67555;47.660;19.622;2024-03-23T05:14:04;6.80;70.50
78297;DHT22;67555;47.660;19.622;2024-03-23T05:16:30;6.80;70.50
78297;DHT22;67555;47.660;19.622;2024-03-23T05:18:55;6.90;70.50
78297;DHT22;67555;47.660;19.622;2024-03-23T05:21:21;6.90;70.40
78297;DHT22;67555;47.660;19.622;2024-03-23T05:23:47;6.80;70.40
78297;DHT22;67555;47.660;19.622;2024-03-23T05:26:13;6.70;70.50
78297;DHT22;67555;47.660;19.622;2024-03-23T05:28:39;6.50;70.80
78297;DHT22;67555;47.660;19.622;2024-03-23T05:31:05;6.50;71.10
78297;DHT22;67555;47.660;19.622;2024-03-23T05:33:30;6.50;71.10
78297;DHT22;67555;47.660;19.622;2024-03-23T05:36:00;6.50;71.00
78297;DHT22;67555;47.660;19.622;2024-03-23T05:38:26;6.50;71.10
78297;DHT22;67555;47.660;19.622;2024-03-23T05:43:19;6.60;71.10
78297;DHT22;67555;47.660;19.622;2024-03-23T05:45:45;6.60;71.10
78297;DHT22;67555;47.660;19.622;2024-03-23T05:48:11;6.70;71.40
78297;DHT22;67555;47.660;19.622;2024-03-23T05:50:36;6.70;71.50
78297;DHT22;67555;47.660;19.622;2024-03-23T05:53:02;6.90;71.50
78297;DHT22;67555;47.660;19.622;2024-03-23T05:55:30;7.00;71.40
78297;DHT22;67555;47.660;19.622;2024-03-23T05:57:56;7.20;71.20
78297;DHT22;67555;47.660;19.622;2024-03-23T06:00:21;7.50;70.70
78297;DHT22;67555;47.660;19.622;2024-03-23T06:02:47;7.80;70.40
78297;DHT22;67555;47.660;19.622;2024-03-23T06:05:13;8.00;70.10
78297;DHT22;67555;47.660;19.622;2024-03-23T06:07:39;8.20;69.80
78297;DHT22;67555;47.660;19.622;2024-03-23T06:10:05;8.50;69.40
78297;DHT22;67555;47.660;19.622;2024-03-23T06:12:31;8.70;69.00
78297;DHT22;67555;47.660;19.622;2024-03-23T06:14:57;8.90;68.70
78297;DHT22;67555;47.660;19.622;2024-03-23T06:17:23;9.00;68.50
78297;DHT22;67555;47.660;19.622;2024-03-23T06:19:49;9.20;68.20
78297;DHT22;67555;47.660;19.622;2024-03-23T06:22:15;9.40;68.00
78297;DHT22;67555;47.660;19.622;2024-03-23T06:24:40;9.50;67.80
78297;DHT22;67555;47.660;19.622;2024-03-23T06:27:06;9.70;67.60
78297;DHT22;67555;47.660;19.622;2024-03-23T06:29:32;9.80;67.40
78297;DHT22;67555;47.660;19.622;2024-03-23T06:31:58;10.00;67.30
78297;DHT22;67555;47.660;19.622;2024-03-23T06:34:24;10.00;67.20
78297;DHT22;67555;47.660;19.622;2024-03-23T06:36:50;10.10;67.20
78297;DHT22;67555;47.660;19.622;2024-03-23T06:39:16;10.20;67.20
78297;DHT22;67555;47.660;19.622;2024-03-23T06:41:42;10.30;67.20
78297;DHT22;67555;47.660;19.622;2024-03-23T06:44:08;10.40;67.10
78297;DHT22;67555;47.660;19.622;2024-03-23T06:46:34;10.40;67.10
78297;DHT22;67555;47.660;19.622;2024-03-23T06:49:00;10.40;67.20
78297;DHT22;67555;47.660;19.622;2024-03-23T06:51:25;10.50;67.20
78297;DHT22;67555;47.660;19.622;2024-03-23T06:53:51;10.50;67.30
78297;DHT22;67555;47.660;19.622;2024-03-23T06:56:17;10.60;67.30
78297;DHT22;67555;47.660;19.622;2024-03-23T06:58:42;10.60;67.30
78297;DHT22;67555;47.660;19.622;2024-03-23T07:01:08;10.80;67.30
78297;DHT22;67555;47.660;19.622;2024-03-23T07:03:34;10.90;67.20
78297;DHT22;67555;47.660;19.622;2024-03-23T07:05:59;11.10;67.00
78297;DHT22;67555;47.660;19.622;2024-03-23T07:08:25;11.10;66.80
78297;DHT22;67555;47.660;19.622;2024-03-23T07:10:51;11.20;66.70
78297;DHT22;67555;47.660;19.622;2024-03-23T07:13:17;11.30;66.80
78297;DHT22;67555;47.660;19.622;2024-03-23T07:15:42;11.40;66.80
78297;DHT22;67555;47.660;19.622;2024-03-23T07:18:08;11.50;66.70
78297;DHT22;67555;47.660;19.622;2024-03-23T07:20:34;11.50;66.60
78297;DHT22;67555;47.660;19.622;2024-03-23T07:23:00;11.70;66.40
78297;DHT22;67555;47.660;19.622;2024-03-23T07:25:25;11.80;66.20
78297;DHT22;67555;47.660;19.622;2024-03-23T07:27:53;11.90;66.10
78297;DHT22;67555;47.660;19.622;2024-03-23T07:30:19;12.00;66.00
78297;DHT22;67555;47.660;19.622;2024-03-23T07:32:45;12.10;66.00
78297;DHT22;67555;47.660;19.622;2024-03-23T07:35:10;12.20;66.00
78297;DHT22;67555;47.660;19.622;2024-03-23T07:37:36;12.30;65.90
78297;DHT22;67555;47.660;19.622;2024-03-23T07:40:02;12.40;65.90
78297;DHT22;67555;47.660;19.622;2024-03-23T07:42:29;12.50;65.80
78297;DHT22;67555;47.660;19.622;2024-03-23T07:44:54;12.60;65.80
78297;DHT22;67555;47.660;19.622;2024-03-23T07:47:22;12.80;65.60
78297;DHT22;67555;47.660;19.622;2024-03-23T07:49:48;13.00;65.40
78297;DHT22;67555;47.660;19.622;2024-03-23T07:52:14;13.10;65.20
78297;DHT22;67555;47.660;19.622;2024-03-23T07:54:40;13.10;65.10
78297;DHT22;67555;47.660;19.622;2024-03-23T07:57:06;13.30;65.00
78297;DHT22;67555;47.660;19.622;2024-03-23T07:59:32;13.40;64.80
78297;DHT22;67555;47.660;19.622;2024-03-23T08:01:59;13.60;64.60
78297;DHT22;67555;47.660;19.622;2024-03-23T08:04:26;13.80;64.40
78297;DHT22;67555;47.660;19.622;2024-03-23T08:06:52;14.00;64.20
78297;DHT22;67555;47.660;19.622;2024-03-23T08:09:18;14.20;63.90
78297;DHT22;67555;47.660;19.622;2024-03-23T08:11:44;14.50;63.60
78297;DHT22;67555;47.660;19.622;2024-03-23T08:14:12;14.80;63.10
78297;DHT22;67555;47.660;19.622;2024-03-23T08:16:38;15.10;62.60
78297;DHT22;67555;47.660;19.622;2024-03-23T08:19:03;15.50;62.00
78297;DHT22;67555;47.660;19.622;2024-03-23T08:21:30;15.80;61.40
78297;DHT22;67555;47.660;19.622;2024-03-23T08:23:56;16.20;60.90
78297;DHT22;67555;47.660;19.622;2024-03-23T08:26:21;16.40;60.30
78297;DHT22;67555;47.660;19.622;2024-03-23T08:28:47;16.60;60.00
78297;DHT22;67555;47.660;19.622;2024-03-23T08:31:13;16.90;59.60
78297;DHT22;67555;47.660;19.622;2024-03-23T08:33:42;17.00;59.30
78297;DHT22;67555;47.660;19.622;2024-03-23T08:36:10;17.20;59.00
78297;DHT22;67555;47.660;19.622;2024-03-23T08:38:38;17.20;58.80
78297;DHT22;67555;47.660;19.622;2024-03-23T08:41:08;17.20;58.50
78297;DHT22;67555;47.660;19.622;2024-03-23T08:43:41;17.20;58.40
78297;DHT22;67555;47.660;19.622;2024-03-23T08:46:08;17.20;58.20
78297;DHT22;67555;47.660;19.622;2024-03-23T08:48:42;17.30;58.30
78297;DHT22;67555;47.660;19.622;2024-03-23T08:51:14;17.40;58.10
78297;DHT22;67555;47.660;19.622;2024-03-23T08:53:41;17.40;58.00
78297;DHT22;67555;47.660;19.622;2024-03-23T08:56:07;17.40;58.10
78297;DHT22;67555;47.660;19.622;2024-03-23T08:58:34;17.50;58.10
78297;DHT22;67555;47.660;19.622;2024-03-23T09:01:05;17.50;58.00
78297;DHT22;67555;47.660;19.622;2024-03-23T09:03:31;17.50;57.80
78297;DHT22;67555;47.660;19.622;2024-03-23T09:05:57;17.80;57.50
78297;DHT22;67555;47.660;19.622;2024-03-23T09:08:24;18.00;56.80
78297;DHT22;67555;47.660;19.622;2024-03-23T09:10:49;18.10;56.20
78297;DHT22;67555;47.660;19.622;2024-03-23T09:13:15;18.20;55.90
78297;DHT22;67555;47.660;19.622;2024-03-23T09:15:49;18.10;55.40
78297;DHT22;67555;47.660;19.622;2024-03-23T09:18:15;18.10;55.10
78297;DHT22;67555;47.660;19.622;2024-03-23T09:20:41;18.10;54.80
78297;DHT22;67555;47.660;19.622;2024-03-23T09:23:07;18.10;54.90
78297;DHT22;67555;47.660;19.622;2024-03-23T09:25:37;18.10;55.00
78297;DHT22;67555;47.660;19.622;2024-03-23T09:28:03;18.10;55.00
78297;DHT22;67555;47.660;19.622;2024-03-23T09:30:29;18.20;54.60
78297;DHT22;67555;47.660;19.622;2024-03-23T09:32:54;18.20;54.00
78297;DHT22;67555;47.660;19.622;2024-03-23T09:35:20;18.20;54.00
78297;DHT22;67555;47.660;19.622;2024-03-23T09:37:46;18.20;53.80
78297;DHT22;67555;47.660;19.622;2024-03-23T09:40:11;18.30;53.70
78297;DHT22;67555;47.660;19.622;2024-03-23T09:42:37;18.30;53.60
78297;DHT22;67555;47.660;19.622;2024-03-23T09:45:06;18.40;53.40
78297;DHT22;67555;47.660;19.622;2024-03-23T09:47:34;18.50;52.90
78297;DHT22;67555;47.660;19.622;2024-03-23T09:50:01;18.70;52.50
78297;DHT22;67555;47.660;19.622;2024-03-23T09:52:26;18.80;52.20
78297;DHT22;67555;47.660;19.622;2024-03-23T09:54:52;19.00;51.80
78297;DHT22;67555;47.660;19.622;2024-03-23T09:57:18;19.20;51.10
78297;DHT22;67555;47.660;19.622;2024-03-23T09:59:43;19.30;50.50
78297;DHT22;67555;47.660;19.622;2024-03-23T10:02:09;19.50;50.20
78297;DHT22;67555;47.660;19.622;2024-03-23T10:04:40;19.60;49.80
78297;DHT22;67555;47.660;19.622;2024-03-23T10:07:18;19.80;49.60
78297;DHT22;67555;47.660;19.622;2024-03-23T10:09:44;20.10;49.10
78297;DHT22;67555;47.660;19.622;2024-03-23T10:12:11;20.30;48.60
78297;DHT22;67555;47.660;19.622;2024-03-23T10:14:39;20.50;48.20
78297;DHT22;67555;47.660;19.622;2024-03-23T10:17:16;20.60;48.00
78297;DHT22;67555;47.660;19.622;2024-03-23T10:19:49;20.60;47.50
78297;DHT22;67555;47.660;19.622;2024-03-23T10:22:24;20.60;47.20
78297;DHT22;67555;47.660;19.622;2024-03-23T10:24:50;20.70;47.00
78297;DHT22;67555;47.660;19.622;2024-03-23T10:27:21;20.70;46.80
78297;DHT22;67555;47.660;19.622;2024-03-23T10:29:47;20.70;46.70
78297;DHT22;67555;47.660;19.622;2024-03-23T10:32:14;20.70;46.30
78297;DHT22;67555;47.660;19.622;2024-03-23T10:34:41;20.70;46.10
78297;DHT22;67555;47.660;19.622;2024-03-23T10:37:07;20.80;46.00
78297;DHT22;67555;47.660;19.622;2024-03-23T10:39:40;20.80;45.60
78297;DHT22;67555;47.660;19.622;2024-03-23T10:42:08;20.70;45.30
78297;DHT22;67555;47.660;19.622;2024-03-23T10:44:34;20.70;45.20
78297;DHT22;67555;47.660;19.622;2024-03-23T10:47:03;20.70;45.20
78297;DHT22;67555;47.660;19.622;2024-03-23T10:49:32;20.70;45.10
78297;DHT22;67555;47.660;19.622;2024-03-23T10:52:05;20.80;44.80
78297;DHT22;67555;47.660;19.622;2024-03-23T10:54:32;21.00;44.80
78297;DHT22;67555;47.660;19.622;2024-03-23T10:57:13;21.10;44.40
78297;DHT22;67555;47.660;19.622;2024-03-23T10:59:40;21.40;43.80
78297;DHT22;67555;47.660;19.622;2024-03-23T11:02:06;21.50;43.50
78297;DHT22;67555;47.660;19.622;2024-03-23T11:04:38;21.60;42.90
78297;DHT22;67555;47.660;19.622;2024-03-23T11:09:56;21.40;42.10
78297;DHT22;67555;47.660;19.622;2024-03-23T11:15:03;21.20;42.30
78297;DHT22;67555;47.660;19.622;2024-03-23T11:17:29;21.30;42.70
78297;DHT22;67555;47.660;19.622;2024-03-23T11:20:05;21.30;42.70
78297;DHT22;67555;47.660;19.622;2024-03-23T11:22:49;21.40;42.60
78297;DHT22;67555;47.660;19.622;2024-03-23T11:25:25;21.40;42.70
78297;DHT22;67555;47.660;19.622;2024-03-23T11:27:55;21.40;42.40
78297;DHT22;67555;47.660;19.622;2024-03-23T11:30:26;21.40;42.40
78297;DHT22;67555;47.660;19.622;2024-03-23T11:32:55;21.50;42.40
78297;DHT22;67555;47.660;19.622;2024-03-23T11:38:06;21.70;42.10
78297;DHT22;67555;47.660;19.622;2024-03-23T11:40:33;21.70;41.90
78297;DHT22;67555;47.660;19.622;2024-03-23T11:43:01;21.80;41.90
78297;DHT22;67555;47.660;19.622;2024-03-23T11:45:27;21.80;41.80
78297;DHT22;67555;47.660;19.622;2024-03-23T11:48:11;21.80;41.70
78297;DHT22;67555;47.660;19.622;2024-03-23T11:50:42;21.70;41.40
78297;DHT22;67555;47.660;19.622;2024-03-23T11:53:15;21.70;41.20
78297;DHT22;67555;47.660;19.622;2024-03-23T11:55:52;21.50;41.20
78297;DHT22;67555;47.660;19.622;2024-03-23T11:58:19;21.40;41.50
78297;DHT22;67555;47.660;19.622;2024-03-23T12:00:55;21.40;41.70
78297;DHT22;67555;47.660;19.622;2024-03-23T12:03:21;21.40;41.80
78297;DHT22;67555;47.660;19.622;2024-03-23T12:05:52;21.30;41.60
78297;DHT22;67555;47.660;19.622;2024-03-23T12:08:23;21.30;41.60
78297;DHT22;67555;47.660;19.622;2024-03-23T12:11:13;21.20;41.50
78297;DHT22;67555;47.660;19.622;2024-03-23T12:13:40;21.10;41.50
78297;DHT22;67555;47.660;19.622;2024-03-23T12:16:12;21.10;41.40
78297;DHT22;67555;47.660;19.622;2024-03-23T12:18:42;21.20;41.30
78297;DHT22;67555;47.660;19.622;2024-03-23T12:21:08;21.30;41.60
78297;DHT22;67555;47.660;19.622;2024-03-23T12:23:35;21.40;41.40
78297;DHT22;67555;47.660;19.622;2024-03-23T12:26:01;21.40;41.40
78297;DHT22;67555;47.660;19.622;2024-03-23T12:28:27;21.50;41.30
78297;DHT22;67555;47.660;19.622;2024-03-23T12:30:52;21.50;41.20
78297;DHT22;67555;47.660;19.622;2024-03-23T12:33:20;21.60;41.20
78297;DHT22;67555;47.660;19.622;2024-03-23T12:35:45;21.50;40.90
78297;DHT22;67555;47.660;19.622;2024-03-23T12:38:11;21.50;40.90
78297;DHT22;67555;47.660;19.622;2024-03-23T12:40:37;21.50;41.00
78297;DHT22;67555;47.660;19.622;2024-03-23T12:43:02;21.50;40.90
78297;DHT22;67555;47.660;19.622;2024-03-23T12:45:28;21.50;41.00
78297;DHT22;67555;47.660;19.622;2024-03-23T12:47:54;21.60;41.10
78297;DHT22;67555;47.660;19.622;2024-03-23T12:50:20;21.70;41.10
78297;DHT22;67555;47.660;19.622;2024-03-23T12:52:46;21.70;41.10
78297;DHT22;67555;47.660;19.622;2024-03-23T12:55:12;21.60;41.00
78297;DHT22;67555;47.660;19.622;2024-03-23T12:57:38;21.50;41.20
78297;DHT22;67555;47.660;19.622;2024-03-23T13:00:04;21.40;41.20
78297;DHT22;67555;47.660;19.622;2024-03-23T13:02:30;21.30;41.10
78297;DHT22;67555;47.660;19.622;2024-03-23T13:04:56;21.30;41.40
78297;DHT22;67555;47.660;19.622;2024-03-23T13:07:22;21.10;41.80
78297;DHT22;67555;47.660;19.622;2024-03-23T13:09:52;21.10;42.20
78297;DHT22;67555;47.660;19.622;2024-03-23T13:12:21;21.10;42.30
78297;DHT22;67555;47.660;19.622;2024-03-23T13:14:47;21.10;42.50
78297;DHT22;67555;47.660;19.622;2024-03-23T13:17:13;21.00;42.60
78297;DHT22;67555;47.660;19.622;2024-03-23T13:19:39;20.90;42.80
78297;DHT22;67555;47.660;19.622;2024-03-23T13:22:06;20.80;43.00
78297;DHT22;67555;47.660;19.622;2024-03-23T13:24:31;20.70;43.00
78297;DHT22;67555;47.660;19.622;2024-03-23T13:26:57;20.70;43.00
78297;DHT22;67555;47.660;19.622;2024-03-23T13:29:24;20.50;43.00
78297;DHT22;67555;47.660;19.622;2024-03-23T13:31:50;20.50;43.20
78297;DHT22;67555;47.660;19.622;2024-03-23T13:34:17;20.50;43.30
78297;DHT22;67555;47.660;19.622;2024-03-23T13:36:47;20.50;43.30
78297;DHT22;67555;47.660;19.622;2024-03-23T13:39:14;20.50;43.30
78297;DHT22;67555;47.660;19.622;2024-03-23T13:41:44;20.50;43.40
78297;DHT22;67555;47.660;19.622;2024-03-23T13:44:14;20.40;43.40
78297;DHT22;67555;47.660;19.622;2024-03-23T13:46:40;20.30;43.50
78297;DHT22;67555;47.660;19.622;2024-03-23T13:51:50;20.20;43.40
78297;DHT22;67555;47.660;19.622;2024-03-23T13:54:15;20.20;43.50
78297;DHT22;67555;47.660;19.622;2024-03-23T13:56:41;20.20;43.70
78297;DHT22;67555;47.660;19.622;2024-03-23T13:59:07;20.20;43.90
78297;DHT22;67555;47.660;19.622;2024-03-23T14:01:32;20.20;44.00
78297;DHT22;67555;47.660;19.622;2024-03-23T14:03:58;20.10;44.30
78297;DHT22;67555;47.660;19.622;2024-03-23T14:06:24;20.10;44.50
78297;DHT22;67555;47.660;19.622;2024-03-23T14:08:50;20.10;44.50
78297;DHT22;67555;47.660;19.622;2024-03-23T14:11:18;20.00;44.40
78297;DHT22;67555;47.660;19.622;2024-03-23T14:13:44;20.00;44.50
78297;DHT22;67555;47.660;19.622;2024-03-23T14:16:10;20.00;44.50
78297;DHT22;67555;47.660;19.622;2024-03-23T14:18:35;19.90;44.70
78297;DHT22;67555;47.660;19.622;2024-03-23T14:21:02;19.90;44.80
78297;DHT22;67555;47.660;19.622;2024-03-23T14:23:29;19.70;44.90
78297;DHT22;67555;47.660;19.622;2024-03-23T14:25:55;19.70;45.10
78297;DHT22;67555;47.660;19.622;2024-03-23T14:28:22;19.60;45.30
78297;DHT22;67555;47.660;19.622;2024-03-23T14:30:49;19.50;45.50
78297;DHT22;67555;47.660;19.622;2024-03-23T14:33:15;19.50;45.60
78297;DHT22;67555;47.660;19.622;2024-03-23T14:35:41;19.40;45.80
78297;DHT22;67555;47.660;19.622;2024-03-23T14:38:07;19.30;46.00
78297;DHT22;67555;47.660;19.622;2024-03-23T14:40:33;19.30;46.10
78297;DHT22;67555;47.660;19.622;2024-03-23T14:42:59;19.30;46.20
78297;DHT22;67555;47.660;19.622;2024-03-23T14:45:25;19.30;46.20
78297;DHT22;67555;47.660;19.622;2024-03-23T14:47:51;19.30;46.20
78297;DHT22;67555;47.660;19.622;2024-03-23T14:50:17;19.30;46.30
78297;DHT22;67555;47.660;19.622;2024-03-23T14:52:46;19.30;46.30
78297;DHT22;67555;47.660;19.622;2024-03-23T14:55:13;19.40;46.20
78297;DHT22;67555;47.660;19.622;2024-03-23T14:57:39;19.40;46.40
78297;DHT22;67555;47.660;19.622;2024-03-23T15:00:09;19.40;46.40
78297;DHT22;67555;47.660;19.622;2024-03-23T15:02:39;19.40;46.50
78297;DHT22;67555;47.660;19.622;2024-03-23T15:05:05;19.40;46.40
78297;DHT22;67555;47.660;19.622;2024-03-23T15:07:35;19.50;46.40
78297;DHT22;67555;47.660;19.622;2024-03-23T15:10:02;19.40;46.40
78297;DHT22;67555;47.660;19.622;2024-03-23T15:12:30;19.40;46.50
78297;DHT22;67555;47.660;19.622;2024-03-23T15:14:57;19.30;46.70
78297;DHT22;67555;47.660;19.622;2024-03-23T15:17:23;19.30;46.80
78297;DHT22;67555;47.660;19.622;2024-03-23T15:19:49;19.30;46.80
78297;DHT22;67555;47.660;19.622;2024-03-23T15:22:14;19.20;46.80
78297;DHT22;67555;47.660;19.622;2024-03-23T15:24:40;19.20;46.90
78297;DHT22;67555;47.660;19.622;2024-03-23T15:27:05;19.20;46.90
78297;DHT22;67555;47.660;19.622;2024-03-23T15:29:34;19.20;46.90
78297;DHT22;67555;47.660;19.622;2024-03-23T15:32:01;19.20;46.90
78297;DHT22;67555;47.660;19.622;2024-03-23T15:34:26;19.10;47.00
78297;DHT22;67555;47.660;19.622;2024-03-23T15:36:52;19.10;47.10
78297;DHT22;67555;47.660;19.622;2024-03-23T15:39:18;19.10;47.20
78297;DHT22;67555;47.660;19.622;2024-03-23T15:41:45;19.10;47.20
78297;DHT22;67555;47.660;19.622;2024-03-23T15:44:11;19.00;47.30
78297;DHT22;67555;47.660;19.622;2024-03-23T15:46:37;19.00;47.30
78297;DHT22;67555;47.660;19.622;2024-03-23T15:49:03;19.00;47.40
78297;DHT22;67555;47.660;19.622;2024-03-23T15:51:28;18.90;47.40
78297;DHT22;67555;47.660;19.622;2024-03-23T15:53:59;18.90;47.50
78297;DHT22;67555;47.660;19.622;2024-03-23T15:56:25;18.80;47.50
78297;DHT22;67555;47.660;19.622;2024-03-23T15:58:51;18.80;47.50
78297;DHT22;67555;47.660;19.622;2024-03-23T16:01:16;18.80;47.60
78297;DHT22;67555;47.660;19.622;2024-03-23T16:03:42;18.70;47.70
78297;DHT22;67555;47.660;19.622;2024-03-23T16:06:08;18.70;47.80
78297;DHT22;67555;47.660;19.622;2024-03-23T16:08:34;18.60;47.90
78297;DHT22;67555;47.660;19.622;2024-03-23T16:11:01;18.60;48.00
78297;DHT22;67555;47.660;19.622;2024-03-23T16:13:27;18.50;48.00
78297;DHT22;67555;47.660;19.622;2024-03-23T16:18:22;18.40;48.10
78297;DHT22;67555;47.660;19.622;2024-03-23T16:21:04;18.30;48.20
78297;DHT22;67555;47.660;19.622;2024-03-23T16:23:35;18.30;48.30
78297;DHT22;67555;47.660;19.622;2024-03-23T16:26:03;18.20;48.40
78297;DHT22;67555;47.660;19.622;2024-03-23T16:28:34;18.10;48.60